createdAt,value
2023-08-17T00:00:49.688Z,5.10
2023-08-17T00:03:17.407Z,7.13
2023-08-17T00:05:45.281Z,7.63
2023-08-17T00:08:12.925Z,9.73
2023-08-17T00:10:41.967Z,6.10
2023-08-17T00:13:09.611Z,7.13
2023-08-17T00:15:37.323Z,6.37
2023-08-17T00:18:05.603Z,9.03
2023-08-17T00:20:33.330Z,6.78
2023-08-17T00:23:00.968Z,5.63
2023-08-17T00:25:28.634Z,5.27
2023-08-17T00:27:57.680Z,6.13
2023-08-17T00:30:25.738Z,4.07
2023-08-17T00:32:53.584Z,5.13
2023-08-17T00:35:21.353Z,5.37
2023-08-17T00:37:49.057Z,5.70
2023-08-17T00:40:16.832Z,10.23
2023-08-17T00:42:44.509Z,7.93
2023-08-17T00:45:13.748Z,6.87
2023-08-17T00:47:42.005Z,7.77
2023-08-17T00:50:10.310Z,7.70
2023-08-17T00:52:38.061Z,5.67
2023-08-17T00:55:07.535Z,5.83
2023-08-17T00:57:35.787Z,3.90
2023-08-17T01:00:06.291Z,4.97
2023-08-17T01:02:36.762Z,9.43
2023-08-17T01:05:07.043Z,6.40
2023-08-17T01:07:34.771Z,8.20
2023-08-17T01:10:04.256Z,5.20
2023-08-17T01:12:33.376Z,5.77
2023-08-17T01:15:07.422Z,7.37
2023-08-17T01:17:42.360Z,8.17
2023-08-17T01:20:13.309Z,7.27
2023-08-17T01:22:43.467Z,6.03
2023-08-17T01:25:12.516Z,4.80
2023-08-17T01:27:42.682Z,7.03
2023-08-17T01:30:12.899Z,7.17
2023-08-17T01:32:46.532Z,5.53
2023-08-17T01:35:22.657Z,12.60
2023-08-17T01:37:54.034Z,6.70
2023-08-17T01:40:24.993Z,8.07
2023-08-17T01:42:53.035Z,5.20
2023-08-17T01:45:20.857Z,8.27
2023-08-17T01:47:48.540Z,5.70
2023-08-17T01:50:16.203Z,5.63
2023-08-17T01:52:43.973Z,11.17
2023-08-17T01:55:11.665Z,5.93
2023-08-17T01:57:40.684Z,5.43
2023-08-17T02:00:11.686Z,7.63
2023-08-17T02:02:39.446Z,6.60
2023-08-17T02:05:07.760Z,5.30
2023-08-17T02:07:35.452Z,6.10
2023-08-17T02:10:03.218Z,6.33
2023-08-17T02:12:30.998Z,5.77
2023-08-17T02:15:00.004Z,7.20
2023-08-17T02:17:28.440Z,5.20
2023-08-17T02:19:56.262Z,4.83
2023-08-17T02:22:24.120Z,6.03
2023-08-17T02:24:53.464Z,9.07
2023-08-17T02:27:21.105Z,10.57
2023-08-17T02:29:48.828Z,4.60
2023-08-17T02:32:17.798Z,5.47
2023-08-17T02:34:45.519Z,4.77
2023-08-17T02:37:13.165Z,5.80
2023-08-17T02:39:41.874Z,5.20
2023-08-17T02:42:09.707Z,5.77
2023-08-17T02:44:37.427Z,6.53
2023-08-17T02:47:05.314Z,7.07
2023-08-17T02:49:34.525Z,4.07
2023-08-17T02:52:02.198Z,8.67
2023-08-17T02:54:29.896Z,9.00
2023-08-17T02:56:57.609Z,8.87
2023-08-17T02:59:25.349Z,10.13
2023-08-17T03:01:53.033Z,8.80
2023-08-17T03:04:20.965Z,7.67
2023-08-17T03:06:50.048Z,10.73
2023-08-17T03:09:17.711Z,9.43
2023-08-17T03:11:45.412Z,9.63
2023-08-17T03:14:13.529Z,10.80
2023-08-17T03:16:41.204Z,10.93
2023-08-17T03:19:11.961Z,10.57
2023-08-17T03:21:40.008Z,32.07
2023-08-17T03:24:09.394Z,12.10
2023-08-17T03:26:37.104Z,13.57
2023-08-17T03:29:04.785Z,15.17
2023-08-17T03:31:32.503Z,16.30
2023-08-17T03:34:01.397Z,24.60
2023-08-17T03:36:29.067Z,16.00
2023-08-17T03:38:56.761Z,21.43
2023-08-17T03:41:26.629Z,18.80
2023-08-17T03:43:54.270Z,16.43
2023-08-17T03:46:22.004Z,18.23
2023-08-17T03:48:49.802Z,19.83
2023-08-17T03:51:17.502Z,27.27
2023-08-17T03:53:45.156Z,22.90
2023-08-17T03:56:12.793Z,18.10
2023-08-17T03:58:41.801Z,23.53
2023-08-17T04:01:09.420Z,21.13
2023-08-17T04:03:37.175Z,27.87
2023-08-17T04:06:07.299Z,27.23
2023-08-17T04:08:35.090Z,26.87
2023-08-17T04:11:02.717Z,23.07
2023-08-17T04:13:30.374Z,25.80
2023-08-17T04:15:59.476Z,23.13
2023-08-17T04:18:27.150Z,22.47
2023-08-17T04:20:55.544Z,22.60
2023-08-17T04:23:23.385Z,25.60
2023-08-17T04:25:51.038Z,26.20
2023-08-17T04:28:18.661Z,27.03
2023-08-17T04:30:46.349Z,25.40
2023-08-17T04:33:15.352Z,26.13
2023-08-17T04:35:43.071Z,28.67
2023-08-17T04:38:10.720Z,30.50
2023-08-17T04:40:38.640Z,29.23
2023-08-17T04:43:06.651Z,30.53
2023-08-17T04:45:34.427Z,31.20
2023-08-17T04:48:02.263Z,30.53
2023-08-17T04:50:31.483Z,32.80
2023-08-17T04:52:59.173Z,34.33
2023-08-17T04:55:26.855Z,32.30
2023-08-17T04:57:54.579Z,30.93
2023-08-17T05:00:28.600Z,33.07
2023-08-17T05:02:56.456Z,35.57
2023-08-17T05:05:24.970Z,30.60
2023-08-17T05:07:54.663Z,34.50
2023-08-17T05:10:22.557Z,30.70
2023-08-17T05:12:50.228Z,30.73
2023-08-17T05:15:18.045Z,31.57
2023-08-17T05:17:45.683Z,34.43
2023-08-17T05:20:14.864Z,33.47
2023-08-17T05:22:42.632Z,37.43
2023-08-17T05:25:11.775Z,33.63
2023-08-17T05:27:38.466Z,37.03
2023-08-17T05:30:07.766Z,36.23
2023-08-17T05:32:35.446Z,34.90
2023-08-17T05:35:03.095Z,37.47
2023-08-17T05:37:30.729Z,36.60
2023-08-17T05:39:58.396Z,33.40
2023-08-17T05:42:27.456Z,36.33
2023-08-17T05:44:55.059Z,35.83
2023-08-17T05:47:22.756Z,34.10
2023-08-17T05:49:50.490Z,34.77
2023-08-17T05:52:18.152Z,33.97
2023-08-17T05:54:45.765Z,35.37
2023-08-17T05:57:13.528Z,36.87
2023-08-17T05:59:42.530Z,35.90
2023-08-17T06:02:10.222Z,36.43
2023-08-17T06:04:38.001Z,37.07
2023-08-17T06:07:06.002Z,36.93
2023-08-17T06:09:33.692Z,32.77
2023-08-17T06:12:01.403Z,33.90
2023-08-17T06:14:29.058Z,36.27
2023-08-17T06:16:58.066Z,38.93
2023-08-17T06:19:25.736Z,36.73
2023-08-17T06:21:53.464Z,34.40
2023-08-17T06:24:21.156Z,36.50
2023-08-17T06:26:48.852Z,36.83
2023-08-17T06:29:16.850Z,38.53
2023-08-17T06:31:44.506Z,36.50
2023-08-17T06:34:13.496Z,34.60
2023-08-17T06:36:41.424Z,31.07
2023-08-17T06:39:09.863Z,33.47
2023-08-17T06:41:37.515Z,22.43
2023-08-17T06:44:07.074Z,27.00
2023-08-17T06:46:34.733Z,18.63
2023-08-17T06:49:02.372Z,22.00
2023-08-17T06:51:31.495Z,18.13
2023-08-17T06:53:59.153Z,21.63
2023-08-17T06:56:26.797Z,17.00
2023-08-17T06:58:54.840Z,20.57
2023-08-17T07:01:22.475Z,16.77
2023-08-17T07:03:50.253Z,18.17
2023-08-17T07:06:17.946Z,16.23
2023-08-17T07:08:47.130Z,17.97
2023-08-17T07:11:14.783Z,13.50
2023-08-17T07:13:42.423Z,16.92
2023-08-17T07:16:10.547Z,19.80
2023-08-17T07:18:38.299Z,15.67
2023-08-17T07:21:05.973Z,19.10
2023-08-17T07:23:33.690Z,21.13
2023-08-17T07:26:02.692Z,19.77
2023-08-17T07:28:30.498Z,25.17
2023-08-17T07:30:58.156Z,21.23
2023-08-17T07:33:25.846Z,18.15
2023-08-17T07:35:54.251Z,18.75
2023-08-17T07:38:21.949Z,16.30
2023-08-17T07:40:49.613Z,15.73
2023-08-17T07:43:18.667Z,14.55
2023-08-17T07:45:46.485Z,14.68
2023-08-17T07:48:14.206Z,16.63
2023-08-17T07:50:41.935Z,15.17
2023-08-17T07:53:09.677Z,15.63
2023-08-17T07:55:37.385Z,13.43
2023-08-17T07:58:06.801Z,13.90
2023-08-17T08:00:35.820Z,17.43
2023-08-17T08:03:03.640Z,16.50
2023-08-17T08:05:31.385Z,13.75
2023-08-17T08:07:59.101Z,14.70
2023-08-17T08:10:26.845Z,13.33
2023-08-17T08:12:54.546Z,12.60
2023-08-17T08:15:22.362Z,13.17
2023-08-17T08:17:51.572Z,14.27
2023-08-17T08:20:19.471Z,12.85
2023-08-17T08:22:47.091Z,15.77
2023-08-17T08:25:14.697Z,140.77
2023-08-17T08:27:42.576Z,29.70
2023-08-17T08:30:10.830Z,25.25
2023-08-17T08:32:38.495Z,16.80
2023-08-17T08:35:08.230Z,17.25
2023-08-17T08:37:35.883Z,15.70
2023-08-17T08:40:03.617Z,14.93
2023-08-17T08:42:31.294Z,16.33
2023-08-17T08:44:58.989Z,15.60
2023-08-17T08:47:28.934Z,13.32
2023-08-17T08:50:03.470Z,17.15
2023-08-17T08:52:36.687Z,13.68
2023-08-17T08:55:14.224Z,17.73
2023-08-17T08:57:43.338Z,16.63
2023-08-17T09:00:13.488Z,14.60
2023-08-17T09:02:41.795Z,12.80
2023-08-17T09:05:12.083Z,16.40
2023-08-17T09:07:41.823Z,10.65
2023-08-17T09:10:11.824Z,13.45
2023-08-17T09:12:41.835Z,11.75
2023-08-17T09:15:10.515Z,14.57
2023-08-17T09:17:38.298Z,12.35
2023-08-17T09:20:08.493Z,13.18
2023-08-17T09:22:42.693Z,13.68
2023-08-17T09:25:11.657Z,14.95
2023-08-17T09:27:42.158Z,11.77
2023-08-17T09:30:12.035Z,9.60
2023-08-17T09:32:39.914Z,12.00
2023-08-17T09:35:09.004Z,12.23
2023-08-17T09:37:36.942Z,14.48
2023-08-17T09:40:06.686Z,9.65
2023-08-17T09:42:37.336Z,12.35
2023-08-17T09:45:05.822Z,13.32
2023-08-17T09:47:33.646Z,14.27
2023-08-17T09:50:01.361Z,14.05
2023-08-17T09:52:29.264Z,13.15
2023-08-17T09:54:58.313Z,10.30
2023-08-17T09:57:27.878Z,9.80
2023-08-17T09:59:56.555Z,10.75
2023-08-17T10:02:26.134Z,13.73
2023-08-17T10:04:59.247Z,10.25
2023-08-17T10:07:34.362Z,10.75
2023-08-17T10:10:05.440Z,11.88
2023-08-17T10:12:39.645Z,9.65
2023-08-17T10:15:12.708Z,10.07
2023-08-17T10:17:56.727Z,13.25
2023-08-17T10:20:25.493Z,11.70
2023-08-17T10:23:01.944Z,12.05
2023-08-17T10:25:30.791Z,11.80
2023-08-17T10:28:01.431Z,11.27
2023-08-17T10:30:29.383Z,10.90
2023-08-17T10:32:57.918Z,11.60
2023-08-17T10:35:26.082Z,16.17
2023-08-17T10:37:53.911Z,10.57
2023-08-17T10:40:27.996Z,11.10
2023-08-17T10:42:57.034Z,8.65
2023-08-17T10:45:31.634Z,7.80
2023-08-17T10:48:28.273Z,12.35
2023-08-17T10:51:04.586Z,6.75
2023-08-17T10:53:43.599Z,7.22
2023-08-17T10:56:13.986Z,7.68
2023-08-17T10:58:42.392Z,9.43
2023-08-17T11:01:11.949Z,8.27
2023-08-17T11:03:40.509Z,12.85
2023-08-17T11:06:19.557Z,8.38
2023-08-17T11:08:55.781Z,10.10
2023-08-17T11:11:24.896Z,8.13
2023-08-17T11:13:57.922Z,7.65
2023-08-17T11:16:27.191Z,7.30
2023-08-17T11:18:58.191Z,13.23
2023-08-17T11:21:26.104Z,6.53
2023-08-17T11:23:57.792Z,7.55
2023-08-17T11:26:26.046Z,8.13
2023-08-17T11:28:54.001Z,9.05
2023-08-17T11:31:21.640Z,4.85
2023-08-17T11:36:24.091Z,5.13
2023-08-17T11:38:51.752Z,7.07
2023-08-17T11:41:19.955Z,8.95
2023-08-17T11:43:48.095Z,5.45
2023-08-17T11:46:17.462Z,5.03
2023-08-17T11:48:45.270Z,6.55
2023-08-17T11:51:14.333Z,6.95
2023-08-17T11:53:42.204Z,7.10
2023-08-17T11:56:11.144Z,6.20
2023-08-17T11:58:44.057Z,6.57
2023-08-17T12:01:13.657Z,8.80
2023-08-17T12:03:43.181Z,6.07
2023-08-17T12:06:11.684Z,7.75
2023-08-17T12:08:45.517Z,8.35
2023-08-17T12:11:14.503Z,9.35
2023-08-17T12:13:42.184Z,7.88
2023-08-17T12:16:17.074Z,8.93
2023-08-17T12:18:46.341Z,10.95
2023-08-17T12:21:14.075Z,8.75
2023-08-17T12:23:43.492Z,7.97
2023-08-17T12:26:11.259Z,14.73
2023-08-17T12:28:42.179Z,7.80
2023-08-17T12:31:09.958Z,8.75
2023-08-17T12:33:37.698Z,6.68
2023-08-17T12:36:07.827Z,5.43
2023-08-17T12:38:35.717Z,14.55
2023-08-17T12:41:07.522Z,8.50
2023-08-17T12:43:35.294Z,8.43
2023-08-17T12:46:02.963Z,7.10
2023-08-17T12:51:05.056Z,6.55
2023-08-17T12:53:33.164Z,5.70
2023-08-17T12:56:00.893Z,9.50
2023-08-17T12:58:29.937Z,11.73
2023-08-17T13:00:57.857Z,8.80
2023-08-17T13:03:25.729Z,8.85
2023-08-17T13:05:53.444Z,10.27
2023-08-17T13:08:21.172Z,6.75
2023-08-17T13:10:48.798Z,7.57
2023-08-17T13:13:16.423Z,10.35
2023-08-17T13:15:45.408Z,7.60
2023-08-17T13:18:13.108Z,7.30
2023-08-17T13:20:41.459Z,7.47
2023-08-17T13:23:09.339Z,6.43
2023-08-17T13:25:37.046Z,6.45
2023-08-17T13:28:05.217Z,8.73
2023-08-17T13:30:33.060Z,11.82
2023-08-17T13:33:02.240Z,8.85
2023-08-17T13:35:29.979Z,6.80
2023-08-17T13:37:58.637Z,6.93
2023-08-17T13:40:26.557Z,6.72
2023-08-17T13:42:54.236Z,8.23
2023-08-17T13:45:21.894Z,6.60
2023-08-17T13:47:49.621Z,6.68
2023-08-17T13:50:19.622Z,7.43
2023-08-17T13:52:47.907Z,8.63
2023-08-17T13:55:15.561Z,6.95
2023-08-17T13:57:43.209Z,8.38
2023-08-17T14:00:12.312Z,8.32
2023-08-17T14:02:40.332Z,7.75
2023-08-17T14:05:08.816Z,5.88
2023-08-17T14:07:37.812Z,5.53
2023-08-17T14:10:10.709Z,7.28
2023-08-17T14:12:42.813Z,7.45
2023-08-17T14:15:11.193Z,8.52
2023-08-17T14:17:38.869Z,5.97
2023-08-17T14:20:07.407Z,6.07
2023-08-17T14:22:35.065Z,5.78
2023-08-17T14:25:04.222Z,6.45
2023-08-17T14:27:31.876Z,4.85
2023-08-17T14:30:02.381Z,5.40
2023-08-17T14:32:32.860Z,5.13
2023-08-17T14:35:02.544Z,7.00
2023-08-17T14:37:30.432Z,5.40
2023-08-17T14:39:58.417Z,5.22
2023-08-17T14:42:28.146Z,5.15
2023-08-17T14:44:56.158Z,7.97
2023-08-17T14:47:24.002Z,6.40
2023-08-17T14:49:51.668Z,5.70
2023-08-17T14:52:19.305Z,6.53
2023-08-17T14:54:46.949Z,6.15
2023-08-17T14:57:14.674Z,4.65
2023-08-17T14:59:43.669Z,9.35
2023-08-17T15:02:11.570Z,7.95
2023-08-17T15:04:39.674Z,7.53
2023-08-17T15:07:12.258Z,10.77
2023-08-17T15:09:40.250Z,4.15
2023-08-17T15:12:08.352Z,5.88
2023-08-17T15:14:36.034Z,5.35
2023-08-17T15:17:05.099Z,8.73
2023-08-17T15:19:40.477Z,5.55
2023-08-17T15:22:15.515Z,5.93
2023-08-17T15:24:44.774Z,5.65
2023-08-17T15:27:12.574Z,5.65
2023-08-17T15:29:41.052Z,6.45
2023-08-17T15:32:10.670Z,4.55
2023-08-17T15:34:38.365Z,5.45
2023-08-17T15:37:08.242Z,4.60
2023-08-17T15:39:36.141Z,4.28
2023-08-17T15:42:05.006Z,5.60
2023-08-17T15:44:33.529Z,6.15
2023-08-17T15:47:02.681Z,6.70
2023-08-17T15:49:31.782Z,6.38
2023-08-17T15:51:59.968Z,5.60
2023-08-17T15:54:35.911Z,6.75
2023-08-17T15:57:07.089Z,6.68
2023-08-17T15:59:35.184Z,6.10
2023-08-17T16:02:03.108Z,5.78
2023-08-17T16:04:34.635Z,6.65
2023-08-17T16:07:02.377Z,5.75
2023-08-17T16:09:31.604Z,5.80
2023-08-17T16:12:02.126Z,4.57
2023-08-17T16:14:29.765Z,5.93
2023-08-17T16:16:57.886Z,4.88
2023-08-17T16:19:25.728Z,4.93
2023-08-17T16:21:54.854Z,6.05
2023-08-17T16:24:27.396Z,4.90
2023-08-17T16:26:56.130Z,4.15
2023-08-17T16:29:24.999Z,8.88
2023-08-17T16:32:09.267Z,6.78
2023-08-17T16:34:37.510Z,6.20
2023-08-17T16:37:07.050Z,5.05
2023-08-17T16:39:34.696Z,6.25
2023-08-17T16:42:02.401Z,5.32
2023-08-17T16:44:30.074Z,5.50
2023-08-17T16:46:57.708Z,7.97
2023-08-17T16:51:55.939Z,8.68
2023-08-17T16:54:24.961Z,6.47
2023-08-17T16:56:54.181Z,6.40
2023-08-17T16:59:22.375Z,5.30
2023-08-17T17:01:50.217Z,5.07
2023-08-17T17:04:18.625Z,5.05
2023-08-17T17:06:46.354Z,5.70
2023-08-17T17:09:13.976Z,3.58
2023-08-17T17:11:43.052Z,5.22
2023-08-17T17:14:10.989Z,7.22
2023-08-17T17:16:38.806Z,5.28
2023-08-17T17:19:06.608Z,5.70
2023-08-17T17:21:34.595Z,6.47
2023-08-17T17:24:03.871Z,6.97
2023-08-17T17:26:32.962Z,6.38
2023-08-17T17:29:03.155Z,5.68
2023-08-17T17:31:30.892Z,5.40
2023-08-17T17:33:58.625Z,7.43
2023-08-17T17:36:26.568Z,4.95
2023-08-17T17:38:55.791Z,7.43
2023-08-17T17:41:23.458Z,6.55
2023-08-17T17:43:53.789Z,5.80
2023-08-17T17:46:22.861Z,4.32
2023-08-17T17:48:50.814Z,6.40
2023-08-17T17:51:18.477Z,4.75
2023-08-17T17:53:46.127Z,6.95
2023-08-17T17:56:14.394Z,5.32
2023-08-17T17:58:42.071Z,6.75
2023-08-17T18:01:11.080Z,6.75
2023-08-17T18:03:40.170Z,5.72
2023-08-17T18:06:08.366Z,6.00
2023-08-17T18:08:37.513Z,6.53
2023-08-17T18:11:05.516Z,8.43
2023-08-17T18:13:33.474Z,8.50
2023-08-17T18:16:03.529Z,7.05
2023-08-17T18:18:33.510Z,5.15
2023-08-17T18:21:02.466Z,5.95
2023-08-17T18:23:32.508Z,5.38
2023-08-17T18:26:01.209Z,6.82
2023-08-17T18:28:29.068Z,6.75
2023-08-17T18:30:57.963Z,7.95
2023-08-17T18:33:25.809Z,7.72
2023-08-17T18:35:55.161Z,7.95
2023-08-17T18:38:27.291Z,12.45
2023-08-17T18:40:55.477Z,10.20
2023-08-17T18:43:23.209Z,9.80
2023-08-17T18:45:50.903Z,8.18
2023-08-17T18:48:18.608Z,7.00
2023-08-17T18:50:46.262Z,7.47
2023-08-17T18:53:13.919Z,5.90
2023-08-17T18:55:42.920Z,6.72
2023-08-17T18:58:10.560Z,5.30
2023-08-17T19:00:38.184Z,5.88
2023-08-17T19:03:06.596Z,5.07
2023-08-17T19:05:34.525Z,6.93
2023-08-17T19:08:02.275Z,5.57
2023-08-17T19:10:29.920Z,8.48
2023-08-17T19:12:58.935Z,5.97
2023-08-17T19:15:26.674Z,6.30
2023-08-17T19:17:54.407Z,9.60
2023-08-17T19:20:22.059Z,5.90
2023-08-17T19:22:49.730Z,27.77
2023-08-17T19:25:17.641Z,8.45
2023-08-17T19:27:45.280Z,7.70
2023-08-17T19:30:14.497Z,6.45
2023-08-17T19:32:42.292Z,4.47
2023-08-17T19:35:10.339Z,5.28
2023-08-17T19:37:38.324Z,7.72
2023-08-17T19:40:07.457Z,10.63
2023-08-17T19:42:37.589Z,5.82
2023-08-17T19:45:06.176Z,5.85
2023-08-17T19:47:35.210Z,4.93
2023-08-17T19:50:03.904Z,4.78
2023-08-17T19:52:31.590Z,9.88
2023-08-17T19:54:59.232Z,6.00
2023-08-17T19:57:27.179Z,6.82
2023-08-17T19:59:55.080Z,8.43
2023-08-17T20:02:22.824Z,7.03
2023-08-17T20:04:51.830Z,6.20
2023-08-17T20:07:19.700Z,6.72
2023-08-17T20:09:47.508Z,7.10
2023-08-17T20:12:15.160Z,4.60
2023-08-17T20:14:42.819Z,4.80
2023-08-17T20:17:10.512Z,7.05
2023-08-17T20:19:39.131Z,4.90
2023-08-17T20:22:08.848Z,5.03
2023-08-17T20:24:36.542Z,6.20
2023-08-17T20:27:06.359Z,4.43
2023-08-17T20:29:34.450Z,5.07
2023-08-17T20:32:02.134Z,4.20
2023-08-17T20:34:30.344Z,5.38
2023-08-17T20:36:58.071Z,6.53
2023-08-17T20:39:27.111Z,5.57
2023-08-17T20:41:55.537Z,4.70
2023-08-17T20:44:23.213Z,5.32
2023-08-17T20:46:51.061Z,5.10
2023-08-17T20:49:18.920Z,5.53
2023-08-17T20:51:46.634Z,6.28
2023-08-17T20:54:14.716Z,6.88
2023-08-17T20:56:43.803Z,8.13
2023-08-17T20:59:11.682Z,6.28
2023-08-17T21:01:39.723Z,7.22
2023-08-17T21:04:08.167Z,7.28
2023-08-17T21:06:38.928Z,6.50
2023-08-17T21:09:14.162Z,6.28
2023-08-17T21:11:43.501Z,7.93
2023-08-17T21:14:11.158Z,5.85
2023-08-17T21:16:40.465Z,6.85
2023-08-17T21:19:08.156Z,6.63
2023-08-17T21:21:35.831Z,5.93
2023-08-17T21:24:03.563Z,7.25
2023-08-17T21:26:31.228Z,8.60
2023-08-17T21:29:00.204Z,5.28
2023-08-17T21:31:27.903Z,6.57
2023-08-17T21:33:55.662Z,5.30
2023-08-17T21:36:23.350Z,9.88
2023-08-17T21:38:51.233Z,9.32
2023-08-17T21:41:19.006Z,8.65
2023-08-17T21:43:46.734Z,5.55
2023-08-17T21:46:15.789Z,7.93
2023-08-17T21:48:43.479Z,9.35
2023-08-17T21:51:11.190Z,6.47
2023-08-17T21:53:38.835Z,6.18
2023-08-17T21:56:06.466Z,6.35
2023-08-17T21:58:34.088Z,4.35
2023-08-17T22:01:02.767Z,5.93
2023-08-17T22:03:32.084Z,5.78
2023-08-17T22:06:03.758Z,6.63
2023-08-17T22:08:31.497Z,8.82
2023-08-17T22:10:59.221Z,4.95
2023-08-17T22:13:26.957Z,7.45
2023-08-17T22:15:54.649Z,7.72
2023-08-17T22:18:22.396Z,5.47
2023-08-17T22:20:51.472Z,6.57
2023-08-17T22:23:19.165Z,4.88
2023-08-17T22:25:46.828Z,5.30
2023-08-17T22:28:14.511Z,9.05
2023-08-17T22:30:42.187Z,7.65
2023-08-17T22:33:09.843Z,7.25
2023-08-17T22:35:37.488Z,6.65
2023-08-17T22:38:06.632Z,6.30
2023-08-17T22:40:34.304Z,4.93
2023-08-17T22:43:01.954Z,8.73
2023-08-17T22:45:29.611Z,6.22
2023-08-17T22:47:57.414Z,5.07
2023-08-17T22:50:25.096Z,5.38
2023-08-17T22:52:54.897Z,3.97
2023-08-17T22:55:24.166Z,5.85
2023-08-17T22:57:51.858Z,9.57
2023-08-17T23:00:20.451Z,6.47
2023-08-17T23:02:48.323Z,6.55
2023-08-17T23:05:16.594Z,3.92
2023-08-17T23:07:44.316Z,4.53
2023-08-17T23:10:12.751Z,4.68
2023-08-17T23:12:41.843Z,6.65
2023-08-17T23:15:10.013Z,4.57
2023-08-17T23:17:37.656Z,4.45
2023-08-17T23:20:06.273Z,5.45
2023-08-17T23:22:33.960Z,4.75
2023-08-17T23:25:01.641Z,5.55
2023-08-17T23:27:29.486Z,3.72
2023-08-17T23:29:58.753Z,4.90
2023-08-17T23:32:28.789Z,5.03
2023-08-17T23:34:56.748Z,4.60
2023-08-17T23:37:24.606Z,6.45
2023-08-17T23:39:52.440Z,4.30
2023-08-17T23:42:20.248Z,6.50
2023-08-17T23:44:48.010Z,6.22
2023-08-17T23:47:17.021Z,5.32
2023-08-17T23:49:45.549Z,4.25
2023-08-17T23:52:13.459Z,5.47
2023-08-17T23:54:41.149Z,7.93
2023-08-17T23:57:08.834Z,8.50
2023-08-17T23:59:36.494Z,8.43
